Time;durP1;ratioP1;P1;durP2;ratioP2;P2;SDS_P1;SDS_P2;PMS_P1;PMS_P2;Temp;Humidity;BMP_temperature;BMP_pressure;BME280_temperature;BME280_humidity;BME280_pressure;Samples;Min_cycle;Max_cycle;Signal;HPM_P1;HPM_P2
2021/05/25 00:02:18;;;;;;;3.05;1.72;;;;;;;;;;1660263;84;21021;-61
2021/05/25 00:04:44;;;;;;;2.52;1.60;;;;;;;;;;1645413;86;21054;-63
2021/05/25 00:07:11;;;;;;;1.70;1.37;;;;;;;;;;1634752;87;21092;-63
2021/05/25 00:09:37;;;;;;;2.08;1.52;;;;;;;;;;1639543;86;21649;-62
2021/05/25 00:12:04;;;;;;;3.40;1.45;;;;;;;;;;1655353;84;21010;-62
2021/05/25 00:14:30;;;;;;;1.55;1.45;;;;;;;;;;1664764;84;21045;-62
2021/05/25 00:16:58;;;;;;;2.05;1.37;;;;;;;;;;1665557;84;21017;-62
2021/05/25 00:19:25;;;;;;;2.72;1.57;;;;;;;;;;1659236;84;21090;-61
2021/05/25 00:21:52;;;;;;;3.37;1.37;;;;;;;;;;1648419;85;20971;-62
2021/05/25 00:24:18;;;;;;;4.35;1.85;;;;;;;;;;1642328;87;21585;-63
2021/05/25 00:26:44;;;;;;;3.10;1.70;;;;;;;;;;1636505;87;20951;-62
2021/05/25 00:29:10;;;;;;;3.12;1.80;;;;;;;;;;1642893;87;20984;-61
2021/05/25 00:31:37;;;;;;;1.70;1.60;;;;;;;;;;1676260;84;21665;-62
2021/05/25 00:34:03;;;;;;;2.12;1.80;;;;;;;;;;1644343;87;20988;-61
2021/05/25 00:36:29;;;;;;;2.27;1.27;;;;;;;;;;1694363;84;20883;-62
2021/05/25 00:38:55;;;;;;;3.00;1.90;;;;;;;;;;1697040;84;20950;-62
2021/05/25 00:41:22;;;;;;;2.45;1.80;;;;;;;;;;1695805;84;20938;-63
2021/05/25 00:43:49;;;;;;;3.98;1.62;;;;;;;;;;1691280;84;21717;-62
2021/05/25 00:46:16;;;;;;;3.70;2.10;;;;;;;;;;1697312;84;20885;-63
2021/05/25 00:48:43;;;;;;;5.00;1.82;;;;;;;;;;1700484;82;20984;-65
2021/05/25 00:51:09;;;;;;;3.35;1.80;;;;;;;;;;1631724;85;20945;-62
2021/05/25 00:53:35;;;;;;;3.47;1.92;;;;;;;;;;1673029;84;21013;-64
2021/05/25 00:56:02;;;;;;;3.42;1.70;;;;;;;;;;1674711;84;21694;-62
2021/05/25 00:58:29;;;;;;;4.95;1.75;;;;;;;;;;1643866;85;20908;-63
2021/05/25 01:00:55;;;;;;;2.33;2.12;;;;;;;;;;1672793;84;20964;-61
2021/05/25 01:03:22;;;;;;;4.80;2.62;;;;;;;;;;1670250;84;21043;-62
2021/05/25 01:05:48;;;;;;;3.37;2.50;;;;;;;;;;1676187;84;20958;-62
2021/05/25 01:08:15;;;;;;;2.50;1.82;;;;;;;;;;1666105;84;21805;-63
2021/05/25 01:10:49;;;;;;;2.83;1.77;;;;;;;;;;1669370;83;20949;-61
2021/05/25 01:13:39;;;;;;;2.45;2.25;;;;;;;;;;1671185;84;21082;-63
2021/05/25 01:15:45;;;;;;;4.47;2.10;;;;;;;;;;1667266;84;21073;-60
2021/05/25 01:18:13;;;;;;;4.15;2.40;;;;;;;;;;1677033;84;21007;-60
2021/05/25 01:20:41;;;;;;;2.60;2.00;;;;;;;;;;1673315;84;22499;-59
2021/05/25 01:23:08;;;;;;;3.45;2.58;;;;;;;;;;1675958;84;20994;-59
2021/05/25 01:25:35;;;;;;;3.00;2.47;;;;;;;;;;1674927;84;21531;-59
2021/05/25 01:28:04;;;;;;;5.10;3.10;;;;;;;;;;1674675;84;21057;-61
2021/05/25 01:30:33;;;;;;;2.30;2.10;;;;;;;;;;1674372;84;21005;-61
2021/05/25 01:32:59;;;;;;;5.53;2.72;;;;;;;;;;1661962;84;21039;-60
2021/05/25 01:35:26;;;;;;;3.20;2.15;;;;;;;;;;1674928;84;21595;-62
2021/05/25 01:37:52;;;;;;;3.35;2.30;;;;;;;;;;1675773;84;20991;-64
2021/05/25 01:40:18;;;;;;;2.60;2.17;;;;;;;;;;1674656;84;21017;-62
2021/05/25 01:42:44;;;;;;;4.22;2.33;;;;;;;;;;1649911;85;21105;-62
2021/05/25 01:45:14;;;;;;;2.40;2.20;;;;;;;;;;1675014;84;21103;-60
2021/05/25 01:47:41;;;;;;;3.90;2.10;;;;;;;;;;1676152;84;21045;-63
2021/05/25 01:50:12;;;;;;;2.98;1.85;;;;;;;;;;1678665;84;20898;-61
2021/05/25 01:53:02;;;;;;;4.22;1.98;;;;;;;;;;1628653;85;20962;-62
2021/05/25 01:55:40;;;;;;;3.75;2.47;;;;;;;;;;1644293;85;21421;-60
2021/05/25 01:58:12;;;;;;;6.15;2.08;;;;;;;;;;1679005;84;21824;-60
2021/05/25 02:00:40;;;;;;;3.65;1.92;;;;;;;;;;1688174;84;20910;-61
2021/05/25 02:03:06;;;;;;;3.95;2.05;;;;;;;;;;1696074;84;20863;-61
2021/05/25 02:05:33;;;;;;;5.33;2.70;;;;;;;;;;1645937;85;21054;-60
2021/05/25 02:08:00;;;;;;;1.70;1.60;;;;;;;;;;1657393;85;21506;-64
2021/05/25 02:10:29;;;;;;;4.00;2.00;;;;;;;;;;1653496;85;21077;-63
2021/05/25 02:13:03;;;;;;;3.42;2.00;;;;;;;;;;1656823;85;21005;-62
2021/05/25 02:15:29;;;;;;;3.35;2.65;;;;;;;;;;1653576;82;20985;-63
2021/05/25 02:17:56;;;;;;;3.10;1.98;;;;;;;;;;1668049;85;21741;-60
2021/05/25 02:20:23;;;;;;;2.98;2.00;;;;;;;;;;1659612;85;21042;-61
2021/05/25 02:22:49;;;;;;;2.77;1.90;;;;;;;;;;1671089;83;21151;-61
2021/05/25 02:25:15;;;;;;;3.70;2.00;;;;;;;;;;1639074;85;21122;-62
2021/05/25 02:27:41;;;;;;;3.12;1.92;;;;;;;;;;1664192;83;21674;-63
2021/05/25 02:30:09;;;;;;;3.00;2.00;;;;;;;;;;1685890;83;21030;-63
2021/05/25 02:32:35;;;;;;;5.45;2.12;;;;;;;;;;1670923;83;21016;-61
2021/05/25 02:35:04;;;;;;;2.37;1.82;;;;;;;;;;1686802;83;21861;-61
2021/05/25 02:37:29;;;;;;;4.28;1.85;;;;;;;;;;1680099;83;21626;-61
2021/05/25 02:39:55;;;;;;;2.52;1.70;;;;;;;;;;1675098;83;20988;-64
2021/05/25 02:42:22;;;;;;;1.95;1.80;;;;;;;;;;1679747;83;21598;-63
2021/05/25 02:44:48;;;;;;;3.08;1.90;;;;;;;;;;1685637;83;21060;-62
2021/05/25 02:47:14;;;;;;;6.45;1.65;;;;;;;;;;1679683;83;21107;-61
2021/05/25 02:49:41;;;;;;;4.50;1.85;;;;;;;;;;1683421;85;21131;-62
2021/05/25 02:52:09;;;;;;;2.30;1.57;;;;;;;;;;1681932;83;20981;-61
2021/05/25 02:54:36;;;;;;;1.90;1.40;;;;;;;;;;1680718;83;21004;-62
2021/05/25 02:57:02;;;;;;;3.00;1.80;;;;;;;;;;1686761;84;20959;-64
2021/05/25 02:59:29;;;;;;;2.65;1.57;;;;;;;;;;1687777;83;21650;-62
2021/05/25 03:01:55;;;;;;;2.67;2.05;;;;;;;;;;1686196;83;21004;-64
2021/05/25 03:04:21;;;;;;;4.62;2.12;;;;;;;;;;1673175;84;20942;-62
2021/05/25 03:06:47;;;;;;;3.52;2.00;;;;;;;;;;1683488;83;20994;-63
2021/05/25 03:09:14;;;;;;;3.08;1.50;;;;;;;;;;1686714;84;21630;-63
2021/05/25 03:11:41;;;;;;;3.05;1.72;;;;;;;;;;1682542;84;21025;-62
2021/05/25 03:14:08;;;;;;;5.92;1.90;;;;;;;;;;1682609;84;20846;-64
2021/05/25 03:16:34;;;;;;;2.47;1.72;;;;;;;;;;1702907;84;21538;-60
2021/05/25 03:19:00;;;;;;;3.40;1.90;;;;;;;;;;1676183;84;20968;-62
2021/05/25 03:21:26;;;;;;;1.95;1.62;;;;;;;;;;1675563;84;21621;-60
2021/05/25 03:23:54;;;;;;;3.87;1.70;;;;;;;;;;1637457;85;21151;-60
2021/05/25 03:26:21;;;;;;;2.55;1.60;;;;;;;;;;1671592;85;21957;-64
2021/05/25 03:28:48;;;;;;;2.90;2.02;;;;;;;;;;1687927;83;21674;-63
2021/05/25 03:31:14;;;;;;;2.52;1.82;;;;;;;;;;1685771;84;21040;-64
2021/05/25 03:33:40;;;;;;;3.20;1.90;;;;;;;;;;1686641;84;21005;-60
2021/05/25 03:36:07;;;;;;;4.05;1.85;;;;;;;;;;1685017;83;21102;-63
2021/05/25 03:38:33;;;;;;;4.00;1.70;;;;;;;;;;1686883;83;20953;-64
2021/05/25 03:40:59;;;;;;;2.45;1.72;;;;;;;;;;1687525;83;21609;-65
2021/05/25 03:43:26;;;;;;;3.62;2.20;;;;;;;;;;1686125;84;21024;-65
2021/05/25 03:45:52;;;;;;;4.33;2.20;;;;;;;;;;1686764;84;21565;-64
2021/05/25 03:48:18;;;;;;;2.30;1.65;;;;;;;;;;1685169;84;21095;-65
2021/05/25 03:50:45;;;;;;;2.47;1.47;;;;;;;;;;1687005;83;21059;-64
2021/05/25 03:53:11;;;;;;;4.67;2.00;;;;;;;;;;1685894;84;21189;-64
2021/05/25 03:55:52;;;;;;;2.98;1.72;;;;;;;;;;1679062;83;20977;-62
2021/05/25 04:00:59;;;;;;;2.42;1.82;;;;;;;;;;1673054;83;21260;-61
2021/05/25 04:03:25;;;;;;;4.28;1.60;;;;;;;;;;1683780;82;21682;-62
2021/05/25 04:05:52;;;;;;;1.72;1.42;;;;;;;;;;1692182;84;20980;-62
2021/05/25 04:08:19;;;;;;;2.10;1.55;;;;;;;;;;1697807;82;21029;-61
2021/05/25 04:10:45;;;;;;;2.08;1.77;;;;;;;;;;1705214;82;20957;-61
2021/05/25 04:13:12;;;;;;;1.87;1.45;;;;;;;;;;1705569;82;21677;-60
2021/05/25 04:15:47;;;;;;;3.05;1.80;;;;;;;;;;1704850;82;21009;-61
2021/05/25 04:18:14;;;;;;;2.00;1.53;;;;;;;;;;1702753;82;21003;-60
2021/05/25 04:20:40;;;;;;;2.85;1.40;;;;;;;;;;1695915;82;21675;-60
2021/05/25 04:23:08;;;;;;;2.75;2.10;;;;;;;;;;1689625;82;21490;-61
2021/05/25 04:25:34;;;;;;;2.95;1.60;;;;;;;;;;1693756;82;21168;-60
2021/05/25 04:28:01;;;;;;;2.12;1.35;;;;;;;;;;1688224;82;21354;-59
2021/05/25 04:30:27;;;;;;;4.40;1.45;;;;;;;;;;1699356;82;20932;-59
2021/05/25 04:32:54;;;;;;;3.05;1.40;;;;;;;;;;1686422;82;21070;-59
2021/05/25 04:35:20;;;;;;;2.20;1.40;;;;;;;;;;1703365;82;21521;-59
2021/05/25 04:37:46;;;;;;;1.87;1.67;;;;;;;;;;1691329;82;21075;-52
2021/05/25 04:40:13;;;;;;;2.17;1.02;;;;;;;;;;1703667;82;21062;-61
2021/05/25 04:42:39;;;;;;;2.55;1.20;;;;;;;;;;1686877;82;21024;-65
2021/05/25 04:45:08;;;;;;;3.40;1.22;;;;;;;;;;1678696;84;21499;-56
2021/05/25 04:47:36;;;;;;;1.82;1.15;;;;;;;;;;1679147;82;21612;-54
2021/05/25 04:50:05;;;;;;;1.40;1.10;;;;;;;;;;1677863;82;21145;-61
2021/05/25 04:52:33;;;;;;;3.22;1.47;;;;;;;;;;1694054;82;21082;-54
2021/05/25 04:55:00;;;;;;;2.20;1.52;;;;;;;;;;1683026;82;20960;-61
2021/05/25 04:57:29;;;;;;;1.98;1.42;;;;;;;;;;1684136;82;21537;-67
2021/05/25 05:00:23;;;;;;;3.60;1.45;;;;;;;;;;1667849;84;21047;-55
2021/05/25 05:02:50;;;;;;;1.92;1.30;;;;;;;;;;1648134;86;21654;-58
2021/05/25 05:05:16;;;;;;;3.70;1.45;;;;;;;;;;1664173;84;21051;-58
2021/05/25 05:07:44;;;;;;;4.05;1.10;;;;;;;;;;1636094;86;21029;-57
2021/05/25 05:10:11;;;;;;;5.53;1.45;;;;;;;;;;1636209;86;20960;-57
2021/05/25 05:12:38;;;;;;;2.42;1.55;;;;;;;;;;1664288;84;21047;-64
2021/05/25 05:15:06;;;;;;;2.65;1.20;;;;;;;;;;1639388;86;21746;-57
2021/05/25 05:17:32;;;;;;;1.75;1.22;;;;;;;;;;1666479;84;21031;-56
2021/05/25 05:19:59;;;;;;;1.85;0.90;;;;;;;;;;1637583;86;21004;-57
2021/05/25 05:22:26;;;;;;;1.85;1.30;;;;;;;;;;1664577;84;20980;-58
2021/05/25 05:24:53;;;;;;;2.35;1.30;;;;;;;;;;1635989;86;21021;-56
2021/05/25 05:27:19;;;;;;;0.80;0.80;;;;;;;;;;1664547;84;21729;-57
2021/05/25 05:29:45;;;;;;;1.55;0.80;;;;;;;;;;1636111;86;21039;-57
2021/05/25 05:32:11;;;;;;;2.90;1.40;;;;;;;;;;1664619;84;21032;-56
2021/05/25 05:34:37;;;;;;;1.55;1.10;;;;;;;;;;1664259;84;21026;-56
2021/05/25 05:37:03;;;;;;;1.45;0.93;;;;;;;;;;1664184;84;21067;-57
2021/05/25 05:39:30;;;;;;;2.27;1.15;;;;;;;;;;1635680;86;21087;-56
2021/05/25 05:41:56;;;;;;;1.22;1.00;;;;;;;;;;1664136;84;21652;-55
2021/05/25 05:44:22;;;;;;;1.67;0.80;;;;;;;;;;1635624;86;20976;-56
2021/05/25 05:46:48;;;;;;;2.90;0.90;;;;;;;;;;1663999;84;21012;-58
2021/05/25 05:49:14;;;;;;;3.77;1.00;;;;;;;;;;1635677;86;21135;-56
2021/05/25 05:51:41;;;;;;;1.12;0.90;;;;;;;;;;1664427;84;21067;-56
2021/05/25 05:54:08;;;;;;;1.20;0.90;;;;;;;;;;1635649;86;20996;-59
2021/05/25 05:56:35;;;;;;;2.77;0.80;;;;;;;;;;1664582;84;21107;-58
2021/05/25 05:59:02;;;;;;;2.00;0.90;;;;;;;;;;1641435;85;21009;-58
2021/05/25 06:01:28;;;;;;;2.70;1.05;;;;;;;;;;1679420;84;20983;-57
2021/05/25 06:03:54;;;;;;;1.47;0.98;;;;;;;;;;1650355;85;21086;-59
2021/05/25 06:06:21;;;;;;;1.52;0.72;;;;;;;;;;1679293;84;21898;-61
2021/05/25 06:08:47;;;;;;;1.30;0.90;;;;;;;;;;1650441;85;21477;-61
2021/05/25 06:11:14;;;;;;;1.20;0.85;;;;;;;;;;1679412;84;21079;-54
2021/05/25 06:13:41;;;;;;;1.42;1.30;;;;;;;;;;1647299;85;21111;-54
2021/05/25 06:16:10;;;;;;;1.50;1.30;;;;;;;;;;1682237;84;21130;-65
2021/05/25 06:18:36;;;;;;;0.80;0.70;;;;;;;;;;1649978;85;21007;-58
2021/05/25 06:21:03;;;;;;;2.52;0.90;;;;;;;;;;1679135;84;21038;-58
2021/05/25 06:23:30;;;;;;;1.82;0.98;;;;;;;;;;1650079;85;21019;-52
2021/05/25 06:25:58;;;;;;;2.67;1.02;;;;;;;;;;1679021;84;21027;-56
2021/05/25 06:28:25;;;;;;;1.95;1.15;;;;;;;;;;1650154;85;21047;-57
2021/05/25 06:30:53;;;;;;;1.92;0.60;;;;;;;;;;1675442;84;20966;-53
2021/05/25 06:33:19;;;;;;;0.72;0.70;;;;;;;;;;1650247;85;21028;-52
2021/05/25 06:35:45;;;;;;;1.15;1.02;;;;;;;;;;1678990;84;21010;-55
2021/05/25 06:38:11;;;;;;;1.32;0.82;;;;;;;;;;1681318;84;21631;-55
2021/05/25 06:40:37;;;;;;;2.80;0.98;;;;;;;;;;1679179;84;21151;-54
2021/05/25 06:43:04;;;;;;;1.87;0.90;;;;;;;;;;1650085;85;21134;-54
2021/05/25 06:45:31;;;;;;;1.52;0.75;;;;;;;;;;1679050;84;20986;-55
2021/05/25 06:47:58;;;;;;;4.40;0.80;;;;;;;;;;1649900;85;21122;-62
2021/05/25 06:50:24;;;;;;;4.85;0.90;;;;;;;;;;1678673;84;20975;-58
2021/05/25 06:52:51;;;;;;;1.98;0.80;;;;;;;;;;1649762;85;21225;-55
2021/05/25 06:55:17;;;;;;;2.17;0.72;;;;;;;;;;1677055;84;21614;-56
2021/05/25 06:57:43;;;;;;;2.75;0.80;;;;;;;;;;1679385;84;21130;-62
2021/05/25 07:00:12;;;;;;;4.78;0.80;;;;;;;;;;1659388;85;21059;-61
2021/05/25 07:02:38;;;;;;;7.25;1.02;;;;;;;;;;1652043;84;21035;-61
2021/05/25 07:05:08;;;;;;;1.60;0.68;;;;;;;;;;1656727;84;21078;-61
2021/05/25 07:07:37;;;;;;;3.90;0.80;;;;;;;;;;1628641;86;20941;-60
2021/05/25 07:10:03;;;;;;;2.20;0.70;;;;;;;;;;1656780;84;21090;-65
2021/05/25 07:12:34;;;;;;;2.77;0.60;;;;;;;;;;1628892;86;21031;-61
2021/05/25 07:15:00;;;;;;;1.05;0.60;;;;;;;;;;1657086;84;21659;-63
2021/05/25 07:17:27;;;;;;;4.17;1.65;;;;;;;;;;1657362;85;21185;-60
2021/05/25 07:19:53;;;;;;;0.90;0.80;;;;;;;;;;1656951;84;21660;-57
2021/05/25 07:22:20;;;;;;;1.25;0.70;;;;;;;;;;1628984;86;21016;-53
2021/05/25 07:24:48;;;;;;;0.80;0.65;;;;;;;;;;1657014;84;21008;-65
2021/05/25 07:27:16;;;;;;;2.98;0.78;;;;;;;;;;1629113;86;21626;-62
2021/05/25 07:29:43;;;;;;;1.65;0.70;;;;;;;;;;1657083;85;21079;-64
2021/05/25 07:32:09;;;;;;;1.32;0.62;;;;;;;;;;1628956;86;21068;-57
2021/05/25 07:34:35;;;;;;;6.40;0.70;;;;;;;;;;1657011;85;21675;-62
2021/05/25 07:37:01;;;;;;;0.95;0.60;;;;;;;;;;1628887;86;21079;-63
2021/05/25 07:39:27;;;;;;;1.02;0.50;;;;;;;;;;1657390;84;21075;-61
2021/05/25 07:41:54;;;;;;;1.00;0.68;;;;;;;;;;1629191;86;21146;-64
2021/05/25 07:44:20;;;;;;;2.55;0.57;;;;;;;;;;1657067;84;21167;-61
2021/05/25 07:46:47;;;;;;;2.92;1.07;;;;;;;;;;1629012;86;21028;-59
2021/05/25 07:49:14;;;;;;;3.35;0.70;;;;;;;;;;1656220;84;21008;-63
2021/05/25 07:51:40;;;;;;;1.05;0.60;;;;;;;;;;1657262;84;21000;-57
2021/05/25 07:54:06;;;;;;;5.58;0.70;;;;;;;;;;1657087;84;21081;-58
2021/05/25 07:56:32;;;;;;;1.35;0.70;;;;;;;;;;1625553;86;20985;-58
2021/05/25 07:59:00;;;;;;;6.35;0.85;;;;;;;;;;1657062;84;21071;-63
2021/05/25 08:01:26;;;;;;;2.17;0.60;;;;;;;;;;1627880;86;21045;-59
2021/05/25 08:03:52;;;;;;;6.35;1.30;;;;;;;;;;1657092;84;21059;-61
2021/05/25 08:06:19;;;;;;;1.45;0.68;;;;;;;;;;1657122;84;48562;-57
2021/05/25 08:08:45;;;;;;;1.12;0.57;;;;;;;;;;1657237;84;21578;-55
2021/05/25 08:11:13;;;;;;;3.42;0.70;;;;;;;;;;1628450;86;21020;-58
2021/05/25 08:13:43;;;;;;;0.93;0.60;;;;;;;;;;1592917;88;21108;-55
2021/05/25 08:16:11;;;;;;;2.12;0.80;;;;;;;;;;1628880;86;21487;-57
2021/05/25 08:21:05;;;;;;;1.00;0.70;;;;;;;;;;1628922;86;21048;-58
2021/05/25 08:23:32;;;;;;;3.70;0.93;;;;;;;;;;1657330;84;21123;-59
2021/05/25 08:25:58;;;;;;;3.00;0.60;;;;;;;;;;1657280;85;21024;-56
2021/05/25 08:28:24;;;;;;;2.40;0.60;;;;;;;;;;1656863;84;20940;-62
2021/05/25 08:30:51;;;;;;;2.35;0.70;;;;;;;;;;1628972;86;21118;-58
2021/05/25 08:33:17;;;;;;;3.30;0.80;;;;;;;;;;1657251;85;20960;-64
2021/05/25 08:35:43;;;;;;;4.72;1.07;;;;;;;;;;1657091;84;21047;-66
2021/05/25 08:38:11;;;;;;;3.52;1.00;;;;;;;;;;1656958;85;21103;-59
2021/05/25 08:40:37;;;;;;;3.37;1.25;;;;;;;;;;1628934;86;21068;-61
2021/05/25 08:43:04;;;;;;;3.08;1.32;;;;;;;;;;1657290;84;21071;-59
2021/05/25 08:45:31;;;;;;;3.42;1.20;;;;;;;;;;1628734;86;21000;-59
2021/05/25 08:47:57;;;;;;;2.75;1.15;;;;;;;;;;1656206;85;21078;-59
2021/05/25 08:50:26;;;;;;;2.90;1.30;;;;;;;;;;1628920;86;21040;-60
2021/05/25 08:52:53;;;;;;;7.17;1.50;;;;;;;;;;1655311;85;21056;-58
2021/05/25 08:55:21;;;;;;;4.42;1.32;;;;;;;;;;1631066;86;21105;-59
2021/05/25 08:57:48;;;;;;;3.15;1.45;;;;;;;;;;1657124;84;21016;-60
2021/05/25 09:00:15;;;;;;;4.03;1.60;;;;;;;;;;1634956;85;21067;-66
2021/05/25 09:02:41;;;;;;;6.28;1.85;;;;;;;;;;1679196;84;21062;-55
2021/05/25 09:05:09;;;;;;;8.38;2.17;;;;;;;;;;1679307;84;21074;-60
2021/05/25 09:07:50;;;;;;;5.62;2.15;;;;;;;;;;1671898;84;21173;-50
2021/05/25 09:13:03;;;;;;;7.17;2.60;;;;;;;;;;1678576;84;21056;-56
2021/05/25 09:15:33;;;;;;;6.55;2.55;;;;;;;;;;1678745;84;21040;-57
2021/05/25 09:18:08;;;;;;;5.75;2.20;;;;;;;;;;1678854;84;21154;-54
2021/05/25 09:20:42;;;;;;;5.92;2.70;;;;;;;;;;1655343;85;21106;-51
2021/05/25 09:23:10;;;;;;;6.92;2.60;;;;;;;;;;1679177;84;21615;-57
2021/05/25 09:25:36;;;;;;;5.05;1.70;;;;;;;;;;1665410;85;20963;-54
2021/05/25 09:28:09;;;;;;;3.92;1.95;;;;;;;;;;1679273;84;21034;-51
2021/05/25 09:30:32;;;;;;;7.62;1.87;;;;;;;;;;1648198;85;21011;-54
2021/05/25 09:33:01;;;;;;;4.08;2.40;;;;;;;;;;1676187;84;21709;-55
2021/05/25 09:35:34;;;;;;;3.47;1.90;;;;;;;;;;1679156;84;21010;-55
2021/05/25 09:38:02;;;;;;;5.10;1.52;;;;;;;;;;1678340;84;21652;-56
2021/05/25 09:40:31;;;;;;;7.47;1.77;;;;;;;;;;1650193;85;21237;-56
2021/05/25 09:43:11;;;;;;;3.15;1.70;;;;;;;;;;1678761;84;21090;-58
2021/05/25 09:45:39;;;;;;;7.05;1.60;;;;;;;;;;1648546;85;21116;-56
2021/05/25 09:48:06;;;;;;;2.17;1.20;;;;;;;;;;1653714;85;21067;-59
2021/05/25 09:50:36;;;;;;;5.92;1.30;;;;;;;;;;1679181;84;21034;-57
2021/05/25 09:53:20;;;;;;;3.65;0.95;;;;;;;;;;1678767;84;21129;-61
2021/05/25 09:55:53;;;;;;;4.33;1.67;;;;;;;;;;1649942;85;20947;-60
2021/05/25 09:58:22;;;;;;;3.77;1.00;;;;;;;;;;1678682;84;21085;-58
2021/05/25 10:00:48;;;;;;;2.45;0.70;;;;;;;;;;1640165;84;21071;-59
2021/05/25 10:03:19;;;;;;;3.12;0.90;;;;;;;;;;1630797;86;21092;-58
2021/05/25 10:05:54;;;;;;;1.92;0.60;;;;;;;;;;1656729;85;21095;-59
2021/05/25 10:08:23;;;;;;;8.23;1.22;;;;;;;;;;1626038;86;21685;-58
2021/05/25 10:10:52;;;;;;;2.87;1.27;;;;;;;;;;1647679;85;21079;-58
2021/05/25 10:13:18;;;;;;;5.42;1.17;;;;;;;;;;1629078;86;21016;-58
2021/05/25 10:15:49;;;;;;;3.27;0.90;;;;;;;;;;1656846;84;21009;-60
2021/05/25 10:18:37;;;;;;;2.02;1.15;;;;;;;;;;1656215;84;21084;-59
2021/05/25 10:21:06;;;;;;;2.55;0.95;;;;;;;;;;1657100;85;20999;-60
2021/05/25 10:23:33;;;;;;;2.25;0.85;;;;;;;;;;1628879;86;21063;-57
2021/05/25 10:26:03;;;;;;;5.05;0.80;;;;;;;;;;1656887;84;21092;-58
2021/05/25 10:28:29;;;;;;;1.12;0.62;;;;;;;;;;1659393;85;21486;-58
2021/05/25 10:30:57;;;;;;;1.25;0.80;;;;;;;;;;1657009;84;20988;-59
2021/05/25 10:33:25;;;;;;;3.05;0.70;;;;;;;;;;1628667;87;21649;-54
2021/05/25 10:36:03;;;;;;;2.83;1.07;;;;;;;;;;1655359;84;21624;-54
2021/05/25 10:38:32;;;;;;;3.85;1.17;;;;;;;;;;1630293;86;22201;-66
2021/05/25 10:41:00;;;;;;;2.47;1.12;;;;;;;;;;1658959;85;20948;-60
2021/05/25 10:43:38;;;;;;;1.92;0.72;;;;;;;;;;1628233;86;21028;-60
2021/05/25 10:46:16;;;;;;;2.65;0.90;;;;;;;;;;1656619;84;21003;-57
2021/05/25 10:51:49;;;;;;;2.05;0.90;;;;;;;;;;1656143;85;21048;-53
2021/05/25 10:54:24;;;;;;;1.90;1.02;;;;;;;;;;1656790;84;21688;-60
2021/05/25 10:56:51;;;;;;;4.58;0.75;;;;;;;;;;1628760;86;21071;-61
2021/05/25 10:59:19;;;;;;;2.27;0.60;;;;;;;;;;1656996;84;20980;-55
2021/05/25 11:01:54;;;;;;;1.27;0.72;;;;;;;;;;1645708;85;21050;-57
2021/05/25 11:04:24;;;;;;;3.98;0.80;;;;;;;;;;1678847;84;21050;-55
2021/05/25 11:06:51;;;;;;;1.07;0.65;;;;;;;;;;1649864;85;21059;-57
2021/05/25 11:09:24;;;;;;;2.00;0.70;;;;;;;;;;1679152;84;22413;-62
2021/05/25 11:12:12;;;;;;;2.30;0.80;;;;;;;;;;1650166;85;21806;-58
2021/05/25 11:15:14;;;;;;;1.45;0.80;;;;;;;;;;1678834;84;21096;-53
2021/05/25 11:17:46;;;;;;;1.15;0.75;;;;;;;;;;1675846;84;21595;-59
2021/05/25 11:20:49;;;;;;;2.70;0.75;;;;;;;;;;1678945;84;20983;-58
2021/05/25 11:23:00;;;;;;;2.52;0.70;;;;;;;;;;1569198;87;21177;-50
2021/05/25 11:25:39;;;;;;;3.47;0.75;;;;;;;;;;1678891;84;21042;-57
2021/05/25 11:28:06;;;;;;;4.75;0.80;;;;;;;;;;1650083;85;21100;-56
2021/05/25 11:30:33;;;;;;;1.20;0.62;;;;;;;;;;1678867;84;21018;-56
2021/05/25 11:33:03;;;;;;;0.78;0.72;;;;;;;;;;1683310;84;21553;-60
2021/05/25 11:35:31;;;;;;;1.60;0.90;;;;;;;;;;1646242;85;21153;-52
2021/05/25 11:38:00;;;;;;;1.50;0.82;;;;;;;;;;1644835;85;21592;-57
2021/05/25 11:40:27;;;;;;;3.65;0.80;;;;;;;;;;1679320;84;21474;-61
2021/05/25 11:42:55;;;;;;;4.33;0.78;;;;;;;;;;1664650;84;20995;-60
2021/05/25 11:45:23;;;;;;;3.92;0.70;;;;;;;;;;1680903;84;21007;-56
2021/05/25 11:48:03;;;;;;;3.45;1.00;;;;;;;;;;1677819;84;20990;-60
2021/05/25 11:50:38;;;;;;;0.98;0.60;;;;;;;;;;1650385;85;21079;-53
2021/05/25 11:53:05;;;;;;;1.65;0.60;;;;;;;;;;1679327;84;21102;-62
2021/05/25 11:55:34;;;;;;;2.05;0.70;;;;;;;;;;1679185;84;21003;-57
2021/05/25 11:57:59;;;;;;;1.12;0.70;;;;;;;;;;1682129;83;21564;-58
2021/05/25 12:00:28;;;;;;;4.15;1.37;;;;;;;;;;1652819;85;21127;-55
2021/05/25 12:02:56;;;;;;;0.42;0.42;;;;;;;;;;1679471;84;21623;-55
2021/05/25 12:05:29;;;;;;;2.80;0.90;;;;;;;;;;1650354;85;21696;-54
2021/05/25 12:07:57;;;;;;;0.78;0.62;;;;;;;;;;1684479;84;21054;-53
2021/05/25 12:10:28;;;;;;;1.87;0.70;;;;;;;;;;1649537;85;21510;-52
2021/05/25 12:13:03;;;;;;;3.10;0.80;;;;;;;;;;1679252;84;21097;-59
2021/05/25 12:15:31;;;;;;;2.98;0.80;;;;;;;;;;1674294;84;21718;-57
2021/05/25 12:18:00;;;;;;;1.65;0.65;;;;;;;;;;1678553;84;21096;-58
2021/05/25 12:20:49;;;;;;;2.02;0.75;;;;;;;;;;1679257;84;21038;-63
2021/05/25 12:23:18;;;;;;;3.35;0.60;;;;;;;;;;1679097;84;21023;-56
2021/05/25 12:25:56;;;;;;;3.55;1.62;;;;;;;;;;1645619;85;21645;-54
2021/05/25 12:28:32;;;;;;;1.67;0.68;;;;;;;;;;1679361;84;20983;-61
2021/05/25 12:30:58;;;;;;;0.82;0.60;;;;;;;;;;1651161;85;21782;-60
2021/05/25 12:33:27;;;;;;;1.60;0.82;;;;;;;;;;1679181;84;21023;-60
2021/05/25 12:35:53;;;;;;;3.27;0.60;;;;;;;;;;1650001;85;21051;-60
2021/05/25 12:38:20;;;;;;;2.02;1.02;;;;;;;;;;1687132;84;20985;-56
2021/05/25 12:41:00;;;;;;;1.67;0.68;;;;;;;;;;1692421;84;21050;-58
2021/05/25 12:43:28;;;;;;;1.02;0.70;;;;;;;;;;1658960;85;21208;-61
2021/05/25 12:46:07;;;;;;;2.37;0.60;;;;;;;;;;1691002;84;21023;-56
2021/05/25 12:48:37;;;;;;;0.88;0.72;;;;;;;;;;1687935;84;21022;-52
2021/05/25 12:51:05;;;;;;;1.62;0.80;;;;;;;;;;1650332;85;21051;-64
2021/05/25 12:53:31;;;;;;;3.70;1.10;;;;;;;;;;1679348;84;21215;-49
2021/05/25 12:55:59;;;;;;;2.47;0.90;;;;;;;;;;1653556;84;21175;-62
2021/05/25 12:58:45;;;;;;;1.82;1.00;;;;;;;;;;1679262;84;21034;-53
2021/05/25 13:01:34;;;;;;;2.47;0.80;;;;;;;;;;1643661;85;21597;-63
2021/05/25 13:04:01;;;;;;;;;;;;;;;;;;1657731;84;21056;-59
2021/05/25 13:06:31;;;;;;;1.35;0.78;;;;;;;;;;1630029;86;20150;-61
2021/05/25 13:09:12;;;;;;;3.25;0.90;;;;;;;;;;1627653;86;21127;-57
2021/05/25 13:12:03;;;;;;;2.58;0.78;;;;;;;;;;1657284;85;21007;-47
2021/05/25 13:14:31;;;;;;;5.45;0.95;;;;;;;;;;1657146;84;21569;-62
2021/05/25 13:17:04;;;;;;;1.17;1.07;;;;;;;;;;1629810;86;20972;-56
2021/05/25 13:19:45;;;;;;;2.72;1.30;;;;;;;;;;1657341;84;20992;-63
2021/05/25 13:22:24;;;;;;;2.45;0.80;;;;;;;;;;1629093;86;21661;-60
2021/05/25 13:24:57;;;;;;;2.85;0.75;;;;;;;;;;1657237;85;20904;-59
2021/05/25 13:27:26;;;;;;;1.65;0.90;;;;;;;;;;1657515;84;21004;-52
2021/05/25 13:29:58;;;;;;;2.15;0.98;;;;;;;;;;1657318;85;21040;-49
2021/05/25 13:32:25;;;;;;;3.33;0.80;;;;;;;;;;1629063;86;21060;-59
2021/05/25 13:34:51;;;;;;;4.40;0.90;;;;;;;;;;1664972;85;21060;-48
2021/05/25 13:37:18;;;;;;;3.72;1.10;;;;;;;;;;1672562;84;21625;-52
2021/05/25 13:39:46;;;;;;;7.22;1.32;;;;;;;;;;1645786;86;21027;-53
2021/05/25 13:42:13;;;;;;;1.27;0.80;;;;;;;;;;1655337;85;21609;-55
2021/05/25 13:44:39;;;;;;;6.20;0.90;;;;;;;;;;1649292;86;21016;-49
2021/05/25 13:47:06;;;;;;;2.95;1.00;;;;;;;;;;1649168;86;21697;-53
2021/05/25 13:49:33;;;;;;;2.52;1.10;;;;;;;;;;1648269;86;21567;-54
2021/05/25 13:51:59;;;;;;;3.70;0.93;;;;;;;;;;1649202;86;20937;-54
2021/05/25 13:54:26;;;;;;;2.62;0.90;;;;;;;;;;1648009;86;20992;-56
2021/05/25 13:56:58;;;;;;;2.22;1.20;;;;;;;;;;1649221;86;20976;-48
2021/05/25 13:59:29;;;;;;;1.57;0.90;;;;;;;;;;1635234;83;21066;-47
2021/05/25 14:01:48;;;;;;;2.65;0.90;;;;;;;;;;1634228;85;21036;-55
2021/05/25 14:04:16;;;;;;;4.22;0.65;;;;;;;;;;1644147;85;21152;-58
2021/05/25 14:06:43;;;;;;;1.95;1.10;;;;;;;;;;1649357;85;20994;-53
2021/05/25 14:09:11;;;;;;;5.50;1.05;;;;;;;;;;1621518;87;20963;-50
2021/05/25 14:11:37;;;;;;;3.42;1.37;;;;;;;;;;1649131;85;21895;-52
2021/05/25 14:14:05;;;;;;;2.80;0.90;;;;;;;;;;1649017;85;21583;-57
2021/05/25 14:16:31;;;;;;;4.40;1.65;;;;;;;;;;1649204;85;21612;-60
2021/05/25 14:18:57;;;;;;;1.30;1.20;;;;;;;;;;1648920;85;21508;-57
2021/05/25 14:21:24;;;;;;;4.58;1.05;;;;;;;;;;1649061;85;21006;-51
2021/05/25 14:23:52;;;;;;;2.27;0.90;;;;;;;;;;1648671;85;21108;-59
2021/05/25 14:26:19;;;;;;;5.35;1.07;;;;;;;;;;1649583;85;21006;-59
2021/05/25 14:28:45;;;;;;;3.35;0.90;;;;;;;;;;1652831;85;20990;-51
2021/05/25 14:31:13;;;;;;;1.07;0.70;;;;;;;;;;1648955;85;21607;-72
2021/05/25 14:33:39;;;;;;;1.12;0.90;;;;;;;;;;1648942;85;20979;-61
2021/05/25 14:36:07;;;;;;;1.02;0.93;;;;;;;;;;1649024;85;20971;-60
2021/05/25 14:38:34;;;;;;;2.40;0.90;;;;;;;;;;1648979;85;21043;-60
2021/05/25 14:41:00;;;;;;;2.25;0.80;;;;;;;;;;1648921;85;21031;-66
2021/05/25 14:43:26;;;;;;;2.90;0.98;;;;;;;;;;1649068;85;21151;-64
2021/05/25 14:45:52;;;;;;;1.72;0.80;;;;;;;;;;1648953;85;21058;-66
2021/05/25 14:48:19;;;;;;;1.75;0.75;;;;;;;;;;1649101;85;21096;-66
2021/05/25 14:50:46;;;;;;;3.17;0.90;;;;;;;;;;1648893;85;21134;-68
2021/05/25 14:53:22;;;;;;;2.00;0.70;;;;;;;;;;1648931;85;21598;-67
2021/05/25 14:55:49;;;;;;;1.10;0.98;;;;;;;;;;1649046;85;21022;-68
2021/05/25 14:58:17;;;;;;;1.10;0.80;;;;;;;;;;1651034;85;21114;-66
2021/05/25 15:00:47;;;;;;;3.72;1.05;;;;;;;;;;1649077;85;21759;-60
2021/05/25 15:03:14;;;;;;;4.53;1.00;;;;;;;;;;1651892;85;21003;-57